sensor_id;sensor_type;location;lat;lon;timestamp;P1;durP1;ratioP1;P2;durP2;ratioP2
52104;SDS011;38103;42.776;23.112;2023-06-14T00:02:03;13.73;;;6.32;;
52104;SDS011;38103;42.776;23.112;2023-06-14T00:04:29;15.50;;;7.03;;
52104;SDS011;38103;42.776;23.112;2023-06-14T00:06:55;17.70;;;6.78;;
52104;SDS011;38103;42.776;23.112;2023-06-14T00:09:21;18.55;;;7.00;;
52104;SDS011;38103;42.776;23.112;2023-06-14T00:11:47;12.85;;;6.65;;
52104;SDS011;38103;42.776;23.112;2023-06-14T00:14:12;16.98;;;6.65;;
52104;SDS011;38103;42.776;23.112;2023-06-14T00:16:39;13.50;;;7.13;;
52104;SDS011;38103;42.776;23.112;2023-06-14T00:19:07;13.57;;;7.03;;
52104;SDS011;38103;42.776;23.112;2023-06-14T00:21:35;15.65;;;6.95;;
52104;SDS011;38103;42.776;23.112;2023-06-14T00:24:01;12.65;;;7.40;;
52104;SDS011;38103;42.776;23.112;2023-06-14T00:26:27;16.17;;;7.32;;
52104;SDS011;38103;42.776;23.112;2023-06-14T00:28:53;12.93;;;7.43;;
52104;SDS011;38103;42.776;23.112;2023-06-14T00:31:19;17.67;;;6.75;;
52104;SDS011;38103;42.776;23.112;2023-06-14T00:33:46;17.40;;;6.43;;
52104;SDS011;38103;42.776;23.112;2023-06-14T00:36:11;13.52;;;6.63;;
52104;SDS011;38103;42.776;23.112;2023-06-14T00:38:37;14.52;;;6.35;;
52104;SDS011;38103;42.776;23.112;2023-06-14T00:41:03;15.55;;;7.18;;
52104;SDS011;38103;42.776;23.112;2023-06-14T00:43:28;14.48;;;6.78;;
52104;SDS011;38103;42.776;23.112;2023-06-14T00:45:54;15.43;;;6.78;;
52104;SDS011;38103;42.776;23.112;2023-06-14T00:48:19;14.57;;;7.20;;
52104;SDS011;38103;42.776;23.112;2023-06-14T00:50:45;13.05;;;7.28;;
52104;SDS011;38103;42.776;23.112;2023-06-14T00:53:17;14.75;;;7.78;;
52104;SDS011;38103;42.776;23.112;2023-06-14T00:55:42;14.48;;;8.07;;
52104;SDS011;38103;42.776;23.112;2023-06-14T00:58:08;15.23;;;7.70;;
52104;SDS011;38103;42.776;23.112;2023-06-14T01:00:35;13.77;;;8.00;;
52104;SDS011;38103;42.776;23.112;2023-06-14T01:03:01;14.80;;;7.38;;
52104;SDS011;38103;42.776;23.112;2023-06-14T01:05:27;13.10;;;7.43;;
52104;SDS011;38103;42.776;23.112;2023-06-14T01:10:43;13.38;;;6.75;;
52104;SDS011;38103;42.776;23.112;2023-06-14T01:13:23;12.88;;;6.43;;
52104;SDS011;38103;42.776;23.112;2023-06-14T01:15:53;12.35;;;6.63;;
52104;SDS011;38103;42.776;23.112;2023-06-14T01:18:20;11.95;;;6.82;;
52104;SDS011;38103;42.776;23.112;2023-06-14T01:20:46;12.15;;;6.38;;
52104;SDS011;38103;42.776;23.112;2023-06-14T01:23:21;12.13;;;5.97;;
52104;SDS011;38103;42.776;23.112;2023-06-14T01:25:48;13.02;;;6.40;;
52104;SDS011;38103;42.776;23.112;2023-06-14T01:28:18;17.73;;;6.28;;
52104;SDS011;38103;42.776;23.112;2023-06-14T01:30:46;13.35;;;6.32;;
52104;SDS011;38103;42.776;23.112;2023-06-14T01:33:17;11.98;;;6.40;;
52104;SDS011;38103;42.776;23.112;2023-06-14T01:35:46;11.27;;;6.22;;
52104;SDS011;38103;42.776;23.112;2023-06-14T01:38:13;12.77;;;6.20;;
52104;SDS011;38103;42.776;23.112;2023-06-14T01:40:40;11.95;;;6.45;;
52104;SDS011;38103;42.776;23.112;2023-06-14T01:43:08;13.95;;;6.32;;
52104;SDS011;38103;42.776;23.112;2023-06-14T01:45:35;11.40;;;5.85;;
52104;SDS011;38103;42.776;23.112;2023-06-14T01:48:01;11.85;;;6.10;;
52104;SDS011;38103;42.776;23.112;2023-06-14T01:50:28;11.57;;;5.88;;
52104;SDS011;38103;42.776;23.112;2023-06-14T01:52:55;13.73;;;6.32;;
52104;SDS011;38103;42.776;23.112;2023-06-14T01:55:20;15.52;;;6.07;;
52104;SDS011;38103;42.776;23.112;2023-06-14T01:57:46;11.57;;;5.90;;
52104;SDS011;38103;42.776;23.112;2023-06-14T02:00:12;11.23;;;5.80;;
52104;SDS011;38103;42.776;23.112;2023-06-14T02:02:39;11.93;;;5.53;;
52104;SDS011;38103;42.776;23.112;2023-06-14T02:05:05;11.15;;;5.90;;
52104;SDS011;38103;42.776;23.112;2023-06-14T02:07:31;11.77;;;5.40;;
52104;SDS011;38103;42.776;23.112;2023-06-14T02:09:57;15.60;;;5.88;;
52104;SDS011;38103;42.776;23.112;2023-06-14T02:12:22;13.05;;;5.20;;
52104;SDS011;38103;42.776;23.112;2023-06-14T02:14:47;13.50;;;5.80;;
52104;SDS011;38103;42.776;23.112;2023-06-14T02:17:13;12.65;;;5.30;;
52104;SDS011;38103;42.776;23.112;2023-06-14T02:19:39;10.77;;;5.57;;
52104;SDS011;38103;42.776;23.112;2023-06-14T02:22:05;14.85;;;5.35;;
52104;SDS011;38103;42.776;23.112;2023-06-14T02:24:31;10.73;;;5.18;;
52104;SDS011;38103;42.776;23.112;2023-06-14T02:26:57;13.13;;;5.60;;
52104;SDS011;38103;42.776;23.112;2023-06-14T02:29:22;15.23;;;5.63;;
52104;SDS011;38103;42.776;23.112;2023-06-14T02:31:47;15.40;;;5.60;;
52104;SDS011;38103;42.776;23.112;2023-06-14T02:34:13;12.55;;;5.47;;
52104;SDS011;38103;42.776;23.112;2023-06-14T02:36:41;11.35;;;5.15;;
52104;SDS011;38103;42.776;23.112;2023-06-14T02:39:07;12.73;;;5.40;;
52104;SDS011;38103;42.776;23.112;2023-06-14T02:41:34;16.20;;;5.47;;
52104;SDS011;38103;42.776;23.112;2023-06-14T02:44:00;10.27;;;5.15;;
52104;SDS011;38103;42.776;23.112;2023-06-14T02:46:25;11.20;;;4.88;;
52104;SDS011;38103;42.776;23.112;2023-06-14T02:48:51;14.30;;;5.43;;
52104;SDS011;38103;42.776;23.112;2023-06-14T02:51:16;10.85;;;5.57;;
52104;SDS011;38103;42.776;23.112;2023-06-14T02:53:41;14.93;;;5.65;;
52104;SDS011;38103;42.776;23.112;2023-06-14T02:56:07;10.43;;;5.32;;
52104;SDS011;38103;42.776;23.112;2023-06-14T02:58:32;11.35;;;5.40;;
52104;SDS011;38103;42.776;23.112;2023-06-14T03:00:58;10.63;;;5.20;;
52104;SDS011;38103;42.776;23.112;2023-06-14T03:03:27;13.30;;;5.38;;
52104;SDS011;38103;42.776;23.112;2023-06-14T03:05:53;13.70;;;5.57;;
52104;SDS011;38103;42.776;23.112;2023-06-14T03:08:19;10.75;;;5.15;;
52104;SDS011;38103;42.776;23.112;2023-06-14T03:10:45;11.75;;;4.80;;
52104;SDS011;38103;42.776;23.112;2023-06-14T03:13:12;11.65;;;5.03;;
52104;SDS011;38103;42.776;23.112;2023-06-14T03:15:38;11.38;;;5.00;;
52104;SDS011;38103;42.776;23.112;2023-06-14T03:18:06;12.10;;;5.15;;
52104;SDS011;38103;42.776;23.112;2023-06-14T03:20:33;12.65;;;5.07;;
52104;SDS011;38103;42.776;23.112;2023-06-14T03:23:02;13.77;;;5.40;;
52104;SDS011;38103;42.776;23.112;2023-06-14T03:25:28;19.35;;;5.05;;
52104;SDS011;38103;42.776;23.112;2023-06-14T03:27:55;11.27;;;4.63;;
52104;SDS011;38103;42.776;23.112;2023-06-14T03:30:21;14.82;;;5.32;;
52104;SDS011;38103;42.776;23.112;2023-06-14T03:32:46;13.88;;;5.32;;
52104;SDS011;38103;42.776;23.112;2023-06-14T03:35:12;12.98;;;4.85;;
52104;SDS011;38103;42.776;23.112;2023-06-14T03:37:42;10.98;;;4.95;;
52104;SDS011;38103;42.776;23.112;2023-06-14T03:40:08;10.45;;;4.85;;
52104;SDS011;38103;42.776;23.112;2023-06-14T03:42:34;13.73;;;5.25;;
52104;SDS011;38103;42.776;23.112;2023-06-14T03:44:59;11.90;;;5.40;;
52104;SDS011;38103;42.776;23.112;2023-06-14T03:47:25;12.32;;;5.10;;
52104;SDS011;38103;42.776;23.112;2023-06-14T03:49:50;16.13;;;4.68;;
52104;SDS011;38103;42.776;23.112;2023-06-14T03:52:15;13.48;;;4.35;;
52104;SDS011;38103;42.776;23.112;2023-06-14T03:54:42;12.38;;;4.75;;
52104;SDS011;38103;42.776;23.112;2023-06-14T03:57:09;10.30;;;4.47;;
52104;SDS011;38103;42.776;23.112;2023-06-14T03:59:35;11.23;;;4.40;;
52104;SDS011;38103;42.776;23.112;2023-06-14T04:02:01;14.20;;;4.20;;
52104;SDS011;38103;42.776;23.112;2023-06-14T04:04:27;10.85;;;4.45;;
52104;SDS011;38103;42.776;23.112;2023-06-14T04:06:57;11.00;;;4.47;;
52104;SDS011;38103;42.776;23.112;2023-06-14T04:09:23;16.00;;;4.20;;
52104;SDS011;38103;42.776;23.112;2023-06-14T04:11:50;8.98;;;4.05;;
52104;SDS011;38103;42.776;23.112;2023-06-14T04:14:17;9.52;;;4.18;;
52104;SDS011;38103;42.776;23.112;2023-06-14T04:16:44;9.45;;;3.80;;
52104;SDS011;38103;42.776;23.112;2023-06-14T04:19:10;9.32;;;4.00;;
52104;SDS011;38103;42.776;23.112;2023-06-14T04:21:35;10.38;;;4.10;;
52104;SDS011;38103;42.776;23.112;2023-06-14T04:24:00;9.38;;;4.10;;
52104;SDS011;38103;42.776;23.112;2023-06-14T04:26:26;11.88;;;4.18;;
52104;SDS011;38103;42.776;23.112;2023-06-14T04:28:54;11.20;;;4.80;;
52104;SDS011;38103;42.776;23.112;2023-06-14T04:31:26;10.70;;;4.97;;
52104;SDS011;38103;42.776;23.112;2023-06-14T04:33:54;12.43;;;5.10;;
52104;SDS011;38103;42.776;23.112;2023-06-14T04:36:19;11.95;;;5.28;;
52104;SDS011;38103;42.776;23.112;2023-06-14T04:38:44;12.90;;;5.32;;
52104;SDS011;38103;42.776;23.112;2023-06-14T04:41:11;12.07;;;5.75;;
52104;SDS011;38103;42.776;23.112;2023-06-14T04:43:37;12.02;;;5.55;;
52104;SDS011;38103;42.776;23.112;2023-06-14T04:46:06;12.90;;;5.63;;
52104;SDS011;38103;42.776;23.112;2023-06-14T04:48:36;12.35;;;6.03;;
52104;SDS011;38103;42.776;23.112;2023-06-14T04:51:02;12.13;;;5.47;;
52104;SDS011;38103;42.776;23.112;2023-06-14T04:53:30;11.73;;;5.70;;
52104;SDS011;38103;42.776;23.112;2023-06-14T04:55:56;11.00;;;5.50;;
52104;SDS011;38103;42.776;23.112;2023-06-14T04:58:21;12.32;;;5.50;;
52104;SDS011;38103;42.776;23.112;2023-06-14T05:00:46;12.98;;;5.32;;
52104;SDS011;38103;42.776;23.112;2023-06-14T05:03:12;12.82;;;5.50;;
52104;SDS011;38103;42.776;23.112;2023-06-14T05:05:40;10.07;;;4.82;;
52104;SDS011;38103;42.776;23.112;2023-06-14T05:08:06;14.35;;;5.57;;
52104;SDS011;38103;42.776;23.112;2023-06-14T05:10:32;12.95;;;5.93;;
52104;SDS011;38103;42.776;23.112;2023-06-14T05:12:59;10.52;;;5.60;;
52104;SDS011;38103;42.776;23.112;2023-06-14T05:15:25;13.30;;;6.57;;
52104;SDS011;38103;42.776;23.112;2023-06-14T05:17:51;13.95;;;6.35;;
52104;SDS011;38103;42.776;23.112;2023-06-14T05:20:20;11.75;;;5.93;;
52104;SDS011;38103;42.776;23.112;2023-06-14T05:22:47;13.13;;;6.47;;
52104;SDS011;38103;42.776;23.112;2023-06-14T05:25:15;12.10;;;6.03;;
52104;SDS011;38103;42.776;23.112;2023-06-14T05:27:40;12.55;;;6.20;;
52104;SDS011;38103;42.776;23.112;2023-06-14T05:30:07;11.20;;;6.07;;
52104;SDS011;38103;42.776;23.112;2023-06-14T05:32:33;11.55;;;5.95;;
52104;SDS011;38103;42.776;23.112;2023-06-14T05:34:59;11.63;;;5.68;;
52104;SDS011;38103;42.776;23.112;2023-06-14T05:37:24;11.77;;;5.90;;
52104;SDS011;38103;42.776;23.112;2023-06-14T05:39:50;12.13;;;6.50;;
52104;SDS011;38103;42.776;23.112;2023-06-14T05:42:15;11.77;;;6.35;;
52104;SDS011;38103;42.776;23.112;2023-06-14T05:44:40;11.88;;;6.57;;
52104;SDS011;38103;42.776;23.112;2023-06-14T05:47:06;11.80;;;6.28;;
52104;SDS011;38103;42.776;23.112;2023-06-14T05:49:31;12.88;;;6.80;;
52104;SDS011;38103;42.776;23.112;2023-06-14T05:51:57;11.23;;;5.88;;
52104;SDS011;38103;42.776;23.112;2023-06-14T05:54:22;12.75;;;6.30;;
52104;SDS011;38103;42.776;23.112;2023-06-14T05:56:47;12.88;;;6.70;;
52104;SDS011;38103;42.776;23.112;2023-06-14T05:59:12;13.82;;;5.97;;
52104;SDS011;38103;42.776;23.112;2023-06-14T06:01:38;11.75;;;6.53;;
52104;SDS011;38103;42.776;23.112;2023-06-14T06:04:05;12.60;;;6.43;;
52104;SDS011;38103;42.776;23.112;2023-06-14T06:06:31;14.27;;;6.32;;
52104;SDS011;38103;42.776;23.112;2023-06-14T06:08:57;14.65;;;6.80;;
52104;SDS011;38103;42.776;23.112;2023-06-14T06:11:23;12.23;;;6.68;;
52104;SDS011;38103;42.776;23.112;2023-06-14T06:13:48;11.88;;;6.47;;
52104;SDS011;38103;42.776;23.112;2023-06-14T06:16:14;14.32;;;7.57;;
52104;SDS011;38103;42.776;23.112;2023-06-14T06:18:40;11.10;;;6.15;;
52104;SDS011;38103;42.776;23.112;2023-06-14T06:21:05;13.23;;;7.50;;
52104;SDS011;38103;42.776;23.112;2023-06-14T06:23:31;13.23;;;7.18;;
52104;SDS011;38103;42.776;23.112;2023-06-14T06:25:56;12.93;;;7.40;;
52104;SDS011;38103;42.776;23.112;2023-06-14T06:28:22;13.95;;;7.22;;
52104;SDS011;38103;42.776;23.112;2023-06-14T06:30:48;12.15;;;6.93;;
52104;SDS011;38103;42.776;23.112;2023-06-14T06:33:13;14.18;;;7.97;;
52104;SDS011;38103;42.776;23.112;2023-06-14T06:35:39;14.02;;;7.53;;
52104;SDS011;38103;42.776;23.112;2023-06-14T06:38:04;13.82;;;7.38;;
52104;SDS011;38103;42.776;23.112;2023-06-14T06:40:30;12.57;;;7.38;;
52104;SDS011;38103;42.776;23.112;2023-06-14T06:42:55;12.45;;;7.35;;
52104;SDS011;38103;42.776;23.112;2023-06-14T06:45:21;16.35;;;8.02;;
52104;SDS011;38103;42.776;23.112;2023-06-14T06:47:48;14.55;;;7.20;;
52104;SDS011;38103;42.776;23.112;2023-06-14T06:50:13;14.20;;;8.30;;
52104;SDS011;38103;42.776;23.112;2023-06-14T06:52:39;13.00;;;7.72;;
52104;SDS011;38103;42.776;23.112;2023-06-14T06:55:04;12.90;;;7.65;;
52104;SDS011;38103;42.776;23.112;2023-06-14T06:57:30;14.55;;;7.82;;
52104;SDS011;38103;42.776;23.112;2023-06-14T06:59:56;13.60;;;7.38;;
52104;SDS011;38103;42.776;23.112;2023-06-14T07:02:22;12.68;;;7.22;;
52104;SDS011;38103;42.776;23.112;2023-06-14T07:04:47;12.23;;;7.15;;
52104;SDS011;38103;42.776;23.112;2023-06-14T07:07:13;15.57;;;7.55;;
52104;SDS011;38103;42.776;23.112;2023-06-14T07:09:38;15.73;;;7.43;;
52104;SDS011;38103;42.776;23.112;2023-06-14T07:12:04;14.10;;;7.95;;
52104;SDS011;38103;42.776;23.112;2023-06-14T07:14:30;15.00;;;8.02;;
52104;SDS011;38103;42.776;23.112;2023-06-14T07:16:55;14.65;;;7.80;;
52104;SDS011;38103;42.776;23.112;2023-06-14T07:19:20;13.38;;;7.63;;
52104;SDS011;38103;42.776;23.112;2023-06-14T07:21:46;14.80;;;8.63;;
52104;SDS011;38103;42.776;23.112;2023-06-14T07:24:13;18.40;;;8.52;;
52104;SDS011;38103;42.776;23.112;2023-06-14T07:26:39;14.25;;;7.50;;
52104;SDS011;38103;42.776;23.112;2023-06-14T07:29:04;16.65;;;7.68;;
52104;SDS011;38103;42.776;23.112;2023-06-14T07:31:30;13.63;;;8.40;;
52104;SDS011;38103;42.776;23.112;2023-06-14T07:33:55;13.93;;;8.27;;
52104;SDS011;38103;42.776;23.112;2023-06-14T07:36:21;13.60;;;8.35;;
52104;SDS011;38103;42.776;23.112;2023-06-14T07:38:47;14.73;;;9.25;;
52104;SDS011;38103;42.776;23.112;2023-06-14T07:41:12;19.25;;;9.63;;
52104;SDS011;38103;42.776;23.112;2023-06-14T07:43:37;15.55;;;9.40;;
52104;SDS011;38103;42.776;23.112;2023-06-14T07:46:03;14.05;;;8.85;;
52104;SDS011;38103;42.776;23.112;2023-06-14T07:48:30;14.20;;;8.75;;
52104;SDS011;38103;42.776;23.112;2023-06-14T07:50:55;15.52;;;8.85;;
52104;SDS011;38103;42.776;23.112;2023-06-14T07:53:21;16.27;;;9.10;;
52104;SDS011;38103;42.776;23.112;2023-06-14T07:55:46;15.23;;;9.35;;
52104;SDS011;38103;42.776;23.112;2023-06-14T07:58:12;15.88;;;8.57;;
52104;SDS011;38103;42.776;23.112;2023-06-14T08:00:37;15.02;;;8.45;;
52104;SDS011;38103;42.776;23.112;2023-06-14T08:03:03;14.55;;;8.30;;
52104;SDS011;38103;42.776;23.112;2023-06-14T08:05:29;13.50;;;8.20;;
52104;SDS011;38103;42.776;23.112;2023-06-14T08:07:54;12.68;;;7.80;;
52104;SDS011;38103;42.776;23.112;2023-06-14T08:10:20;19.45;;;8.50;;
52104;SDS011;38103;42.776;23.112;2023-06-14T08:12:47;14.80;;;7.78;;
52104;SDS011;38103;42.776;23.112;2023-06-14T08:15:13;14.38;;;8.50;;
52104;SDS011;38103;42.776;23.112;2023-06-14T08:17:39;14.13;;;8.75;;
52104;SDS011;38103;42.776;23.112;2023-06-14T08:20:04;16.38;;;8.27;;
52104;SDS011;38103;42.776;23.112;2023-06-14T08:22:31;16.23;;;8.25;;
52104;SDS011;38103;42.776;23.112;2023-06-14T08:24:59;16.90;;;7.72;;
52104;SDS011;38103;42.776;23.112;2023-06-14T08:27:24;14.65;;;8.82;;
52104;SDS011;38103;42.776;23.112;2023-06-14T08:29:50;13.23;;;8.05;;
52104;SDS011;38103;42.776;23.112;2023-06-14T08:32:15;13.70;;;8.52;;
52104;SDS011;38103;42.776;23.112;2023-06-14T08:34:40;15.40;;;9.25;;
52104;SDS011;38103;42.776;23.112;2023-06-14T08:37:06;13.05;;;7.93;;
52104;SDS011;38103;42.776;23.112;2023-06-14T08:39:32;14.07;;;8.52;;
52104;SDS011;38103;42.776;23.112;2023-06-14T08:41:58;13.07;;;8.30;;
52104;SDS011;38103;42.776;23.112;2023-06-14T08:44:26;15.07;;;9.65;;
52104;SDS011;38103;42.776;23.112;2023-06-14T08:46:51;15.70;;;9.45;;
52104;SDS011;38103;42.776;23.112;2023-06-14T08:49:20;14.52;;;9.10;;
52104;SDS011;38103;42.776;23.112;2023-06-14T08:51:46;15.88;;;9.40;;
52104;SDS011;38103;42.776;23.112;2023-06-14T08:54:17;16.15;;;9.80;;
52104;SDS011;38103;42.776;23.112;2023-06-14T08:56:45;15.05;;;9.02;;
52104;SDS011;38103;42.776;23.112;2023-06-14T08:59:13;15.20;;;9.15;;
52104;SDS011;38103;42.776;23.112;2023-06-14T09:01:38;16.02;;;9.20;;
52104;SDS011;38103;42.776;23.112;2023-06-14T09:04:04;14.13;;;8.82;;
52104;SDS011;38103;42.776;23.112;2023-06-14T09:06:33;15.70;;;9.90;;
52104;SDS011;38103;42.776;23.112;2023-06-14T09:08:58;15.68;;;9.40;;
52104;SDS011;38103;42.776;23.112;2023-06-14T09:11:24;15.48;;;9.05;;
52104;SDS011;38103;42.776;23.112;2023-06-14T09:13:51;14.80;;;9.02;;
52104;SDS011;38103;42.776;23.112;2023-06-14T09:16:16;14.93;;;9.98;;
52104;SDS011;38103;42.776;23.112;2023-06-14T09:18:43;16.35;;;9.90;;
52104;SDS011;38103;42.776;23.112;2023-06-14T09:21:10;15.65;;;9.57;;
52104;SDS011;38103;42.776;23.112;2023-06-14T09:23:37;15.07;;;9.70;;
52104;SDS011;38103;42.776;23.112;2023-06-14T09:26:21;14.63;;;9.50;;
52104;SDS011;38103;42.776;23.112;2023-06-14T09:28:48;14.90;;;9.10;;
52104;SDS011;38103;42.776;23.112;2023-06-14T09:31:18;17.15;;;10.48;;
52104;SDS011;38103;42.776;23.112;2023-06-14T09:33:44;17.02;;;9.70;;
52104;SDS011;38103;42.776;23.112;2023-06-14T09:36:15;15.18;;;9.90;;
52104;SDS011;38103;42.776;23.112;2023-06-14T09:38:57;18.60;;;10.07;;
52104;SDS011;38103;42.776;23.112;2023-06-14T09:41:38;16.08;;;10.10;;
52104;SDS011;38103;42.776;23.112;2023-06-14T09:44:06;17.65;;;10.52;;
52104;SDS011;38103;42.776;23.112;2023-06-14T09:46:33;16.13;;;10.65;;
52104;SDS011;38103;42.776;23.112;2023-06-14T09:49:00;16.55;;;9.93;;
52104;SDS011;38103;42.776;23.112;2023-06-14T09:51:26;15.65;;;10.10;;
52104;SDS011;38103;42.776;23.112;2023-06-14T09:53:53;15.38;;;9.55;;
52104;SDS011;38103;42.776;23.112;2023-06-14T09:56:27;15.10;;;9.50;;
52104;SDS011;38103;42.776;23.112;2023-06-14T09:58:57;19.52;;;10.52;;
52104;SDS011;38103;42.776;23.112;2023-06-14T10:01:26;17.33;;;10.48;;
52104;SDS011;38103;42.776;23.112;2023-06-14T10:03:56;16.92;;;10.48;;
52104;SDS011;38103;42.776;23.112;2023-06-14T10:06:27;18.35;;;10.63;;
52104;SDS011;38103;42.776;23.112;2023-06-14T10:08:55;15.73;;;10.20;;
52104;SDS011;38103;42.776;23.112;2023-06-14T10:11:25;19.60;;;10.68;;
52104;SDS011;38103;42.776;23.112;2023-06-14T10:13:57;18.45;;;10.27;;
52104;SDS011;38103;42.776;23.112;2023-06-14T10:16:24;17.27;;;11.20;;
52104;SDS011;38103;42.776;23.112;2023-06-14T10:24:35;17.75;;;11.68;;
52104;SDS011;38103;42.776;23.112;2023-06-14T10:27:06;18.00;;;10.73;;
52104;SDS011;38103;42.776;23.112;2023-06-14T10:29:35;16.70;;;10.93;;
52104;SDS011;38103;42.776;23.112;2023-06-14T10:32:24;19.05;;;11.35;;
52104;SDS011;38103;42.776;23.112;2023-06-14T10:34:56;17.90;;;11.10;;
52104;SDS011;38103;42.776;23.112;2023-06-14T10:37:23;16.13;;;10.25;;
52104;SDS011;38103;42.776;23.112;2023-06-14T10:39:50;16.65;;;11.63;;
52104;SDS011;38103;42.776;23.112;2023-06-14T10:42:16;20.42;;;11.90;;
52104;SDS011;38103;42.776;23.112;2023-06-14T10:47:19;16.95;;;11.25;;
52104;SDS011;38103;42.776;23.112;2023-06-14T10:50:05;17.88;;;11.60;;
52104;SDS011;38103;42.776;23.112;2023-06-14T10:52:32;16.77;;;11.18;;
52104;SDS011;38103;42.776;23.112;2023-06-14T10:55:14;17.58;;;10.50;;
52104;SDS011;38103;42.776;23.112;2023-06-14T11:00:11;17.88;;;10.85;;
52104;SDS011;38103;42.776;23.112;2023-06-14T11:02:49;16.83;;;10.00;;
52104;SDS011;38103;42.776;23.112;2023-06-14T11:05:23;16.48;;;10.40;;
52104;SDS011;38103;42.776;23.112;2023-06-14T11:10:55;17.98;;;11.80;;
52104;SDS011;38103;42.776;23.112;2023-06-14T11:13:25;19.05;;;11.50;;
52104;SDS011;38103;42.776;23.112;2023-06-14T11:15:51;17.75;;;12.27;;
52104;SDS011;38103;42.776;23.112;2023-06-14T11:18:22;21.50;;;13.10;;
52104;SDS011;38103;42.776;23.112;2023-06-14T11:20:52;16.83;;;11.48;;
52104;SDS011;38103;42.776;23.112;2023-06-14T11:23:18;16.92;;;10.90;;
52104;SDS011;38103;42.776;23.112;2023-06-14T11:25:43;17.95;;;10.50;;
52104;SDS011;38103;42.776;23.112;2023-06-14T11:28:14;18.08;;;11.18;;
52104;SDS011;38103;42.776;23.112;2023-06-14T11:30:39;17.92;;;10.95;;
52104;SDS011;38103;42.776;23.112;2023-06-14T11:33:09;17.10;;;10.27;;
52104;SDS011;38103;42.776;23.112;2023-06-14T11:35:35;18.08;;;11.20;;
52104;SDS011;38103;42.776;23.112;2023-06-14T11:38:01;17.13;;;10.98;;
52104;SDS011;38103;42.776;23.112;2023-06-14T11:40:27;19.50;;;12.27;;
52104;SDS011;38103;42.776;23.112;2023-06-14T11:42:59;19.50;;;12.82;;
52104;SDS011;38103;42.776;23.112;2023-06-14T11:45:25;18.80;;;12.02;;
52104;SDS011;38103;42.776;23.112;2023-06-14T11:47:53;19.00;;;11.40;;
52104;SDS011;38103;42.776;23.112;2023-06-14T11:50:21;19.85;;;12.82;;
52104;SDS011;38103;42.776;23.112;2023-06-14T11:52:52;18.33;;;11.50;;
52104;SDS011;38103;42.776;23.112;2023-06-14T11:55:21;19.50;;;11.68;;
52104;SDS011;38103;42.776;23.112;2023-06-14T11:57:47;17.17;;;11.80;;
52104;SDS011;38103;42.776;23.112;2023-06-14T12:00:13;16.50;;;11.25;;
52104;SDS011;38103;42.776;23.112;2023-06-14T12:02:40;17.38;;;11.63;;
52104;SDS011;38103;42.776;23.112;2023-06-14T12:05:07;22.38;;;12.88;;
52104;SDS011;38103;42.776;23.112;2023-06-14T12:07:38;20.85;;;12.32;;
52104;SDS011;38103;42.776;23.112;2023-06-14T12:10:07;17.95;;;11.50;;
52104;SDS011;38103;42.776;23.112;2023-06-14T12:12:39;19.25;;;11.95;;
52104;SDS011;38103;42.776;23.112;2023-06-14T12:15:05;17.58;;;11.55;;
52104;SDS011;38103;42.776;23.112;2023-06-14T12:17:35;18.02;;;10.75;;
52104;SDS011;38103;42.776;23.112;2023-06-14T12:20:06;20.13;;;11.65;;
52104;SDS011;38103;42.776;23.112;2023-06-14T12:22:36;18.15;;;11.85;;
52104;SDS011;38103;42.776;23.112;2023-06-14T12:25:02;17.65;;;11.40;;
52104;SDS011;38103;42.776;23.112;2023-06-14T12:27:29;18.48;;;12.70;;
52104;SDS011;38103;42.776;23.112;2023-06-14T12:30:01;16.50;;;11.20;;
52104;SDS011;38103;42.776;23.112;2023-06-14T12:32:27;19.63;;;11.57;;
52104;SDS011;38103;42.776;23.112;2023-06-14T12:34:53;14.48;;;9.85;;
52104;SDS011;38103;42.776;23.112;2023-06-14T12:37:18;15.93;;;9.98;;
52104;SDS011;38103;42.776;23.112;2023-06-14T12:39:44;19.20;;;10.90;;
52104;SDS011;38103;42.776;23.112;2023-06-14T12:42:09;16.83;;;10.45;;
52104;SDS011;38103;42.776;23.112;2023-06-14T12:44:34;16.15;;;10.10;;
52104;SDS011;38103;42.776;23.112;2023-06-14T12:47:05;15.82;;;10.20;;
52104;SDS011;38103;42.776;23.112;2023-06-14T12:49:31;16.55;;;10.18;;
52104;SDS011;38103;42.776;23.112;2023-06-14T12:51:56;16.92;;;10.18;;
52104;SDS011;38103;42.776;23.112;2023-06-14T12:54:21;16.40;;;10.27;;
52104;SDS011;38103;42.776;23.112;2023-06-14T12:56:50;14.68;;;10.13;;
52104;SDS011;38103;42.776;23.112;2023-06-14T12:59:16;17.20;;;10.50;;
52104;SDS011;38103;42.776;23.112;2023-06-14T13:01:42;16.95;;;9.95;;
52104;SDS011;38103;42.776;23.112;2023-06-14T13:04:07;18.25;;;10.98;;
52104;SDS011;38103;42.776;23.112;2023-06-14T13:06:33;16.63;;;10.00;;
52104;SDS011;38103;42.776;23.112;2023-06-14T13:08:58;17.10;;;11.02;;
52104;SDS011;38103;42.776;23.112;2023-06-14T13:11:24;17.25;;;10.30;;
52104;SDS011;38103;42.776;23.112;2023-06-14T13:13:49;15.65;;;10.43;;
52104;SDS011;38103;42.776;23.112;2023-06-14T13:16:14;15.70;;;10.38;;
52104;SDS011;38103;42.776;23.112;2023-06-14T13:18:40;16.63;;;10.82;;
52104;SDS011;38103;42.776;23.112;2023-06-14T13:21:05;19.13;;;10.10;;
52104;SDS011;38103;42.776;23.112;2023-06-14T13:23:30;16.30;;;10.00;;
52104;SDS011;38103;42.776;23.112;2023-06-14T13:25:56;15.98;;;10.60;;
52104;SDS011;38103;42.776;23.112;2023-06-14T13:28:21;17.17;;;9.50;;
52104;SDS011;38103;42.776;23.112;2023-06-14T13:30:47;18.92;;;10.95;;
52104;SDS011;38103;42.776;23.112;2023-06-14T13:33:13;17.23;;;10.75;;
52104;SDS011;38103;42.776;23.112;2023-06-14T13:35:38;18.58;;;10.32;;
52104;SDS011;38103;42.776;23.112;2023-06-14T13:38:03;18.33;;;11.05;;
52104;SDS011;38103;42.776;23.112;2023-06-14T13:40:29;16.00;;;11.00;;
52104;SDS011;38103;42.776;23.112;2023-06-14T13:42:54;16.08;;;10.48;;
52104;SDS011;38103;42.776;23.112;2023-06-14T13:45:20;18.80;;;10.60;;
52104;SDS011;38103;42.776;23.112;2023-06-14T13:47:45;17.00;;;10.10;;
52104;SDS011;38103;42.776;23.112;2023-06-14T13:50:13;14.82;;;9.48;;
52104;SDS011;38103;42.776;23.112;2023-06-14T13:52:39;16.02;;;9.45;;
52104;SDS011;38103;42.776;23.112;2023-06-14T13:55:05;16.40;;;9.65;;
52104;SDS011;38103;42.776;23.112;2023-06-14T13:57:30;17.30;;;9.50;;
52104;SDS011;38103;42.776;23.112;2023-06-14T13:59:56;15.48;;;9.63;;
52104;SDS011;38103;42.776;23.112;2023-06-14T14:02:26;15.93;;;9.35;;
52104;SDS011;38103;42.776;23.112;2023-06-14T14:04:52;15.60;;;8.90;;
52104;SDS011;38103;42.776;23.112;2023-06-14T14:07:18;23.88;;;8.75;;
52104;SDS011;38103;42.776;23.112;2023-06-14T14:09:44;16.50;;;8.25;;
52104;SDS011;38103;42.776;23.112;2023-06-14T14:12:09;14.32;;;8.15;;
52104;SDS011;38103;42.776;23.112;2023-06-14T14:14:36;12.27;;;6.95;;
52104;SDS011;38103;42.776;23.112;2023-06-14T14:17:02;13.45;;;7.00;;
52104;SDS011;38103;42.776;23.112;2023-06-14T14:19:27;12.63;;;7.20;;
52104;SDS011;38103;42.776;23.112;2023-06-14T14:21:52;11.90;;;7.00;;
52104;SDS011;38103;42.776;23.112;2023-06-14T14:24:21;14.95;;;7.82;;
52104;SDS011;38103;42.776;23.112;2023-06-14T14:26:46;13.10;;;7.50;;
52104;SDS011;38103;42.776;23.112;2023-06-14T14:29:15;14.48;;;6.57;;
52104;SDS011;38103;42.776;23.112;2023-06-14T14:31:41;12.48;;;7.05;;
52104;SDS011;38103;42.776;23.112;2023-06-14T14:34:07;12.10;;;7.07;;